createdAt,value
2023-02-22T05:02:40.121Z,21.08
2023-02-22T05:05:07.296Z,21.98
2023-02-22T05:07:33.776Z,22.63
2023-02-22T05:10:03.001Z,21.40
2023-02-22T05:12:29.630Z,22.30
2023-02-22T05:14:56.198Z,22.48
2023-02-22T05:17:23.840Z,18.98
2023-02-22T05:19:50.410Z,19.60
2023-02-22T05:22:17.698Z,18.53
2023-02-22T05:24:44.521Z,19.20
2023-02-22T05:27:12.125Z,20.27
2023-02-22T05:29:38.767Z,19.33
2023-02-22T05:32:06.844Z,19.55
2023-02-22T05:34:36.129Z,22.50
2023-02-22T05:37:03.467Z,20.45
2023-02-22T05:39:30.942Z,21.27
2023-02-22T05:41:58.118Z,21.27
2023-02-22T05:44:24.680Z,23.10
2023-02-22T05:46:51.377Z,22.10
2023-02-22T05:49:18.053Z,20.75
2023-02-22T05:51:44.615Z,20.90
2023-02-22T05:54:11.142Z,20.35
2023-02-22T05:56:37.704Z,20.33
2023-02-22T05:59:04.348Z,20.80
2023-02-22T06:01:30.974Z,19.85
2023-02-22T06:03:57.557Z,21.38
2023-02-22T06:06:24.158Z,21.48
2023-02-22T06:08:50.802Z,21.75
2023-02-22T06:11:19.505Z,20.73
2023-02-22T06:13:51.669Z,20.23
2023-02-22T06:16:18.960Z,21.08
2023-02-22T06:18:45.468Z,19.52
2023-02-22T06:21:12.021Z,19.38
2023-02-22T06:23:38.831Z,20.77
2023-02-22T06:26:05.782Z,19.42
2023-02-22T06:28:32.349Z,21.02
2023-02-22T06:30:58.948Z,20.15
2023-02-22T06:33:25.450Z,19.80
2023-02-22T06:35:51.969Z,18.70
2023-02-22T06:38:54.875Z,17.67
2023-02-22T06:41:21.423Z,19.25
2023-02-22T06:43:48.205Z,18.48
2023-02-22T06:46:14.844Z,20.17
2023-02-22T06:48:41.375Z,20.10
2023-02-22T06:53:33.158Z,19.70
2023-02-22T06:54:43.749Z,20.00
2023-02-22T06:57:10.333Z,20.65
2023-02-22T06:59:36.831Z,19.52
2023-02-22T07:02:04.012Z,18.13
2023-02-22T07:04:30.920Z,18.90
2023-02-22T07:06:57.463Z,19.08
2023-02-22T07:09:24.050Z,19.77
2023-02-22T07:11:50.551Z,21.08
2023-02-22T07:14:17.568Z,20.00
2023-02-22T07:16:44.157Z,21.27
2023-02-22T07:19:10.730Z,21.77
2023-02-22T07:21:37.321Z,21.20
2023-02-22T07:24:05.530Z,21.25
2023-02-22T07:26:41.856Z,20.50
2023-02-22T07:29:09.006Z,20.02
2023-02-22T07:31:37.384Z,20.40
2023-02-22T07:34:04.210Z,20.40
2023-02-22T07:36:30.840Z,21.25
2023-02-22T07:38:57.423Z,20.37
2023-02-22T07:41:24.038Z,21.33
2023-02-22T07:43:50.618Z,20.85
2023-02-22T07:46:17.203Z,22.75
2023-02-22T07:48:43.812Z,21.35
2023-02-22T07:51:10.466Z,21.17
2023-02-22T07:53:37.025Z,20.85
2023-02-22T07:56:05.546Z,21.92
2023-02-22T07:58:32.661Z,19.50
2023-02-22T08:01:03.125Z,19.55
2023-02-22T08:03:34.394Z,19.87
2023-02-22T08:06:02.963Z,20.25
2023-02-22T08:08:29.721Z,20.20
2023-02-22T08:10:56.671Z,19.98
2023-02-22T08:13:24.295Z,19.27
2023-02-22T08:15:53.626Z,22.90
2023-02-22T08:18:21.637Z,19.70
2023-02-22T08:20:49.700Z,20.63
2023-02-22T08:23:18.637Z,20.38
2023-02-22T08:25:45.419Z,20.00
2023-02-22T08:28:15.188Z,18.53
2023-02-22T08:30:45.320Z,18.35
2023-02-22T08:33:19.396Z,17.98
2023-02-22T08:35:49.655Z,17.98
2023-02-22T08:38:24.842Z,17.10
2023-02-22T08:40:51.794Z,16.27
2023-02-22T08:43:19.794Z,16.60
2023-02-22T08:45:47.183Z,17.13
2023-02-22T08:48:15.272Z,16.70
2023-02-22T08:50:42.438Z,16.33
2023-02-22T08:53:10.805Z,16.63
2023-02-22T08:55:39.321Z,16.98
2023-02-22T08:58:09.270Z,16.50
2023-02-22T09:00:38.772Z,16.38
2023-02-22T09:03:08.401Z,16.75
2023-02-22T09:05:35.149Z,18.43
2023-02-22T09:08:02.301Z,16.80
2023-02-22T09:10:31.932Z,16.42
2023-02-22T09:13:01.077Z,16.10
2023-02-22T09:15:28.587Z,15.75
2023-02-22T09:17:55.762Z,16.03
2023-02-22T09:20:24.032Z,15.07
2023-02-22T09:22:51.476Z,14.82
2023-02-22T09:25:21.142Z,15.82
2023-02-22T09:27:49.512Z,15.52
2023-02-22T09:30:23.990Z,15.20
2023-02-22T09:32:55.485Z,14.80
2023-02-22T09:35:27.285Z,15.20
2023-02-22T09:37:58.983Z,17.40
2023-02-22T09:40:30.155Z,18.98
2023-02-22T09:43:17.872Z,15.27
2023-02-22T09:46:13.600Z,17.70
2023-02-22T09:48:59.326Z,16.42
2023-02-22T09:51:35.817Z,15.07
2023-02-22T09:54:06.182Z,15.10
2023-02-22T09:56:34.016Z,15.40
2023-02-22T09:59:04.162Z,14.57
2023-02-22T10:01:39.667Z,14.45
2023-02-22T10:04:23.219Z,13.93
2023-02-22T10:07:10.758Z,14.85
2023-02-22T10:09:42.740Z,15.47
2023-02-22T10:12:09.349Z,14.05
2023-02-22T10:15:09.161Z,14.52
2023-02-22T10:17:50.111Z,13.98
2023-02-22T10:20:28.649Z,15.02
2023-02-22T10:23:32.725Z,13.83
2023-02-22T10:26:13.930Z,13.82
2023-02-22T10:29:03.023Z,14.60
2023-02-22T10:31:42.427Z,14.52
2023-02-22T10:34:15.779Z,13.98
2023-02-22T10:36:47.898Z,13.00
2023-02-22T10:39:30.631Z,14.23
2023-02-22T10:42:06.051Z,13.57
2023-02-22T10:44:34.003Z,14.55
2023-02-22T10:47:06.883Z,13.98
2023-02-22T10:50:04.277Z,14.47
2023-02-22T10:52:36.974Z,14.77
2023-02-22T10:55:15.342Z,13.30
2023-02-22T10:57:45.841Z,13.20
2023-02-22T11:00:20.544Z,13.20
2023-02-22T11:02:58.701Z,14.03
2023-02-22T11:05:37.353Z,13.93
2023-02-22T11:08:32.995Z,14.23
2023-02-22T11:11:03.335Z,13.50
2023-02-22T11:13:38.338Z,13.35
2023-02-22T11:16:26.543Z,13.27
2023-02-22T11:19:08.438Z,13.48
2023-02-22T11:21:35.299Z,12.68
2023-02-22T11:24:04.890Z,13.82
2023-02-22T11:26:39.799Z,13.23
2023-02-22T11:29:27.483Z,13.33
2023-02-22T11:31:55.411Z,13.30
2023-02-22T11:34:34.731Z,13.30
2023-02-22T11:37:30.153Z,13.35
2023-02-22T11:40:05.851Z,13.15
2023-02-22T11:42:32.420Z,12.83
2023-02-22T11:45:10.929Z,13.55
2023-02-22T11:47:55.904Z,12.40
2023-02-22T11:50:30.821Z,13.55
2023-02-22T11:53:25.386Z,12.55
2023-02-22T11:56:10.571Z,13.07
2023-02-22T11:58:46.356Z,12.43
2023-02-22T12:01:17.514Z,12.88
2023-02-22T12:04:16.895Z,13.35
2023-02-22T12:07:15.558Z,12.60
2023-02-22T12:09:48.291Z,12.40
2023-02-22T12:12:24.618Z,13.27
2023-02-22T12:14:55.374Z,12.70
2023-02-22T12:18:10.000Z,12.05
2023-02-22T12:20:45.598Z,12.40
2023-02-22T12:23:12.847Z,12.00
2023-02-22T12:25:45.254Z,12.95
2023-02-22T12:28:24.355Z,12.45
2023-02-22T12:31:06.980Z,17.15
2023-02-22T12:33:51.415Z,14.10
2023-02-22T12:36:21.949Z,17.73
2023-02-22T12:38:57.457Z,24.35
2023-02-22T12:41:38.419Z,27.25
2023-02-22T12:44:35.194Z,14.43
2023-02-22T12:47:05.602Z,14.30
2023-02-22T12:50:15.907Z,16.80
2023-02-22T12:53:22.168Z,14.07
2023-02-22T12:55:56.650Z,16.00
2023-02-22T12:58:32.330Z,14.10
2023-02-22T13:01:14.131Z,14.48
2023-02-22T13:03:47.339Z,14.87
2023-02-22T13:06:47.226Z,14.40
2023-02-22T13:09:33.364Z,15.55
2023-02-22T13:12:23.748Z,14.13
2023-02-22T13:15:28.896Z,13.98
2023-02-22T13:18:19.440Z,15.30
2023-02-22T13:20:57.177Z,14.68
2023-02-22T13:23:44.345Z,14.67
2023-02-22T13:26:30.947Z,14.15
2023-02-22T13:29:08.756Z,14.00
2023-02-22T13:32:02.802Z,14.57
2023-02-22T13:34:35.165Z,15.35
2023-02-22T13:37:04.686Z,14.15
2023-02-22T13:39:54.696Z,15.30
2023-02-22T13:42:49.249Z,14.55
2023-02-22T13:45:30.784Z,15.43
2023-02-22T13:48:32.694Z,15.02
2023-02-22T13:51:27.143Z,15.52
2023-02-22T13:54:06.275Z,17.20
2023-02-22T13:56:32.981Z,17.20
2023-02-22T13:59:02.531Z,16.25
2023-02-22T14:01:47.385Z,17.45
2023-02-22T14:04:38.178Z,15.75
2023-02-22T14:07:29.753Z,14.25
2023-02-22T14:09:59.169Z,16.50
2023-02-22T14:12:33.515Z,16.80
2023-02-22T14:15:29.535Z,16.42
2023-02-22T14:17:56.833Z,16.83
2023-02-22T14:20:40.439Z,16.77
2023-02-22T14:23:41.267Z,16.57
2023-02-22T14:26:23.079Z,17.10
2023-02-22T14:28:55.360Z,17.38
2023-02-22T14:31:37.339Z,18.02
2023-02-22T14:34:06.336Z,17.48
2023-02-22T14:36:48.070Z,17.17
2023-02-22T14:39:20.263Z,20.92
2023-02-22T14:41:54.208Z,18.50
2023-02-22T14:44:26.554Z,20.00
2023-02-22T14:46:56.632Z,20.15
2023-02-22T14:49:28.495Z,18.40
2023-02-22T14:52:03.818Z,18.75
2023-02-22T14:54:44.862Z,19.17
2023-02-22T14:57:24.390Z,19.23
2023-02-22T14:59:57.238Z,18.30
2023-02-22T15:02:26.033Z,18.53
2023-02-22T15:04:56.441Z,21.50
2023-02-22T15:07:29.808Z,19.40
2023-02-22T15:10:20.610Z,20.20
2023-02-22T15:13:11.453Z,20.58
2023-02-22T15:15:49.623Z,22.40
2023-02-22T15:18:52.022Z,21.30
2023-02-22T15:21:26.020Z,21.92
2023-02-22T15:24:02.081Z,23.55
2023-02-22T15:26:49.161Z,22.95
2023-02-22T15:29:20.584Z,21.50
2023-02-22T15:31:48.604Z,20.45
2023-02-22T15:34:15.367Z,20.58
2023-02-22T15:36:43.952Z,23.63
2023-02-22T15:39:33.213Z,23.63
2023-02-22T15:42:19.390Z,25.93
2023-02-22T15:44:48.190Z,23.83
2023-02-22T15:47:23.490Z,25.00
2023-02-22T15:50:18.232Z,26.52
2023-02-22T15:52:59.595Z,26.40
2023-02-22T15:55:30.967Z,25.83
2023-02-22T15:58:01.755Z,29.15
2023-02-22T16:00:40.339Z,30.00
2023-02-22T16:03:10.881Z,30.83
2023-02-22T16:05:45.962Z,31.80
2023-02-22T16:08:18.039Z,32.57
2023-02-22T16:10:58.174Z,33.65
2023-02-22T16:13:33.844Z,33.65
2023-02-22T16:16:22.451Z,34.70
2023-02-22T16:18:50.254Z,33.67
2023-02-22T16:21:21.720Z,33.30
2023-02-22T16:24:01.326Z,34.10
2023-02-22T16:26:34.957Z,34.17
2023-02-22T16:29:07.716Z,35.25
2023-02-22T16:31:37.039Z,34.65
2023-02-22T16:34:07.343Z,35.10
2023-02-22T16:36:42.897Z,38.17
2023-02-22T16:39:20.073Z,36.47
2023-02-22T16:41:47.060Z,39.83
2023-02-22T16:44:14.067Z,39.95
2023-02-22T16:46:41.964Z,39.60
2023-02-22T16:49:12.185Z,50.90
2023-02-22T16:51:49.420Z,46.53
2023-02-22T16:54:23.975Z,48.03
2023-02-22T16:56:52.045Z,41.90
2023-02-22T16:59:18.903Z,40.17
2023-02-22T17:01:45.564Z,67.13
2023-02-22T17:04:24.758Z,63.05
2023-02-22T17:06:52.043Z,54.03
2023-02-22T17:09:21.750Z,46.47
2023-02-22T17:11:51.067Z,44.43
2023-02-22T17:14:23.784Z,43.03
2023-02-22T17:16:51.172Z,43.33
2023-02-22T17:19:23.216Z,41.92
2023-02-22T17:21:50.686Z,44.80
2023-02-22T17:24:20.164Z,45.27
2023-02-22T17:26:46.914Z,47.85
2023-02-22T17:29:15.203Z,46.50
2023-02-22T17:31:43.781Z,46.42
2023-02-22T17:34:10.617Z,45.88
2023-02-22T17:36:38.156Z,45.57
2023-02-22T17:39:06.148Z,45.35
2023-02-22T17:41:32.892Z,46.20
2023-02-22T17:43:59.434Z,44.13
2023-02-22T17:46:26.026Z,47.08
2023-02-22T17:48:55.568Z,49.20
2023-02-22T17:51:25.036Z,46.17
2023-02-22T17:53:52.111Z,44.45
2023-02-22T17:56:20.114Z,45.00
2023-02-22T17:58:53.258Z,46.47
2023-02-22T18:01:27.249Z,45.00
2023-02-22T18:03:55.578Z,42.40
2023-02-22T18:06:25.406Z,43.00
2023-02-22T18:08:56.419Z,42.92
2023-02-22T18:11:26.274Z,43.47
2023-02-22T18:13:54.454Z,43.77
2023-02-22T18:16:21.496Z,44.08
2023-02-22T18:18:49.517Z,47.33
2023-02-22T18:21:16.349Z,43.38
2023-02-22T18:23:44.998Z,45.30
2023-02-22T18:26:21.603Z,42.03
2023-02-22T18:28:49.106Z,43.70
2023-02-22T18:31:21.458Z,40.35
2023-02-22T18:33:51.091Z,41.28
2023-02-22T18:36:23.113Z,41.72
2023-02-22T18:38:54.945Z,41.17
2023-02-22T18:41:26.433Z,41.50
2023-02-22T18:43:55.389Z,39.95
2023-02-22T18:46:24.348Z,40.97
2023-02-22T18:48:54.320Z,41.25
2023-02-22T18:51:21.328Z,40.87
2023-02-22T18:53:49.867Z,40.55
2023-02-22T18:56:21.891Z,39.85
2023-02-22T18:58:53.290Z,40.95
2023-02-22T19:01:20.611Z,41.65
2023-02-22T19:03:47.459Z,41.43
2023-02-22T19:06:24.888Z,40.28
2023-02-22T19:08:51.726Z,39.75
2023-02-22T19:11:21.906Z,41.70
2023-02-22T19:13:50.954Z,40.42
2023-02-22T19:16:19.857Z,40.97
2023-02-22T19:18:47.675Z,47.70
2023-02-22T19:21:14.983Z,37.88
2023-02-22T19:23:50.981Z,45.17
2023-02-22T19:26:26.384Z,40.55
2023-02-22T19:28:55.001Z,40.72
2023-02-22T19:31:29.599Z,40.80
2023-02-22T19:34:00.752Z,37.40
2023-02-22T19:36:27.711Z,37.28
2023-02-22T19:38:54.274Z,37.22
2023-02-22T19:41:23.069Z,34.83
2023-02-22T19:43:52.450Z,34.53
2023-02-22T19:46:21.240Z,34.72
2023-02-22T19:48:52.279Z,33.58
2023-02-22T19:51:21.275Z,34.05
2023-02-22T19:53:47.870Z,32.63
2023-02-22T19:56:17.509Z,32.63
2023-02-22T19:58:46.510Z,31.65
2023-02-22T20:01:29.205Z,32.15
2023-02-22T20:04:07.828Z,32.17
2023-02-22T20:06:42.401Z,32.92
2023-02-22T20:09:12.222Z,33.47
2023-02-22T20:11:39.342Z,33.42
2023-02-22T20:14:06.589Z,34.88
2023-02-22T20:16:34.798Z,37.45
2023-02-22T20:19:01.718Z,36.35
2023-02-22T20:21:33.677Z,39.60
2023-02-22T20:24:04.813Z,39.38
2023-02-22T20:26:33.572Z,34.63
2023-02-22T20:29:01.015Z,31.10
2023-02-22T20:31:29.568Z,34.15
2023-02-22T20:33:59.188Z,31.53
2023-02-22T20:36:31.028Z,32.97
2023-02-22T20:38:59.243Z,32.45
2023-02-22T20:41:31.495Z,33.30
2023-02-22T20:43:58.773Z,32.25
2023-02-22T20:46:27.288Z,33.13
2023-02-22T20:48:55.690Z,33.75
2023-02-22T20:51:22.551Z,32.45
2023-02-22T20:53:49.148Z,34.22
2023-02-22T20:56:18.612Z,32.83
2023-02-22T20:58:45.603Z,32.37
2023-02-22T21:01:13.983Z,32.78
2023-02-22T21:03:44.217Z,33.47
2023-02-22T21:06:15.449Z,33.35
2023-02-22T21:08:44.304Z,35.00
2023-02-22T21:11:16.470Z,35.23
2023-02-22T21:13:43.491Z,36.10
2023-02-22T21:16:25.385Z,35.03
2023-02-22T21:18:54.072Z,34.50
2023-02-22T21:21:22.092Z,33.60
2023-02-22T21:23:51.181Z,33.03
2023-02-22T21:26:20.675Z,33.80
2023-02-22T21:28:51.252Z,33.22
2023-02-22T21:31:20.762Z,35.17
2023-02-22T21:33:53.033Z,32.60
2023-02-22T21:36:25.985Z,33.27
2023-02-22T21:38:57.885Z,32.28
2023-02-22T21:41:27.863Z,32.67
2023-02-22T21:43:56.111Z,33.17
2023-02-22T21:46:27.571Z,32.30
2023-02-22T21:48:57.891Z,34.17
2023-02-22T21:51:27.103Z,33.22
2023-02-22T21:53:58.272Z,33.63
2023-02-22T21:56:30.938Z,32.80
2023-02-22T21:59:05.595Z,31.98
2023-02-22T22:01:37.162Z,31.83
2023-02-22T22:04:04.721Z,32.15
2023-02-22T22:06:33.231Z,33.10
2023-02-22T22:09:00.472Z,33.60
2023-02-22T22:11:27.503Z,32.42
2023-02-22T22:13:57.694Z,31.27
2023-02-22T22:16:27.250Z,31.05
2023-02-22T22:18:54.735Z,31.13
2023-02-22T22:21:23.288Z,31.80
2023-02-22T22:23:54.342Z,34.63
2023-02-22T22:26:21.997Z,32.00
2023-02-22T22:28:51.977Z,33.05
2023-02-22T22:31:20.791Z,32.85
2023-02-22T22:33:47.947Z,31.38
2023-02-22T22:36:16.759Z,33.20
2023-02-22T22:38:46.912Z,33.77
2023-02-22T22:41:14.698Z,32.20
2023-02-22T22:43:46.029Z,32.70
2023-02-22T22:46:15.182Z,32.95
2023-02-22T22:48:42.507Z,31.52
2023-02-22T22:51:11.830Z,32.47
2023-02-22T22:53:44.309Z,33.17
2023-02-22T22:56:17.664Z,32.90
2023-02-22T22:58:49.880Z,33.38
